• Join FlightAware (Why Join?)
  • Login
  • US Flag 
12:04PM EDT


 

Airport Tracker/Info


-or-


 

Live Flight TrackerFlight Track Log ✈ AWI3699 ✈ 16-Jun-2013 ✈ KHPN - KCLT

Flight Track Log - Related Links

Times and Time Zones

All times are in EDT time to prevent confusion due to time zone crossing. See the AWI3699 flight status page for this flight to view local times or setup timezone preferences in your user account.

Time Position Orientation Groundspeed Altitude Reporting Facility
EDT Latitude Longitude Course Direction KTS MPH feet Rate Location/Type
06:44PM 41.1000 -73.7500 234° Southwest 146 168 2,400  Level New York TRACON
06:45PM 41.1000 -73.8167 270° West 192 221 5,100 2,160 Climbing New York TRACON
06:46PM 40.9088 -73.9866 239° Southwest  Level FlightAware Approximate
06:46PM 41.0500 -73.8667 217° Southwest 235 270 6,800  Level New York TRACON
06:47PM 40.8605 -74.0913 239° Southwest  Level FlightAware Approximate
06:47PM 40.9833 -73.9333 217° Southwest 275 316 9,100  Level New York TRACON
06:48PM 40.8096 -74.1936 234° Southwest  Level FlightAware Approximate
06:48PM 40.9333 -74.0000 225° Southwest 277 319 11,900  Level New York TRACON
06:49PM 40.7554 -74.2930 234° Southwest  Level FlightAware Approximate
06:49PM 40.8667 -74.0667 217° Southwest 291 335 13,600  Level New York TRACON
06:51PM 40.7483 -74.3019 236° Southwest 345 397 15,700 1,020 Climbing New York Center
06:52PM 40.6972 -74.4061 237° Southwest 351 404 17,000 1,620 Climbing New York Center
06:53PM 40.6319 -74.4956 226° Southwest 351 404 18,900 1,560 Climbing New York Center
06:54PM 40.5647 -74.5792 223° Southwest 345 397 20,200 1,260 Climbing New York Center
06:55PM 40.4953 -74.6628 222° Southwest 339 390 21,500 1,200 Climbing New York Center
06:56PM 40.4278 -74.7489 224° Southwest 334 384 22,700 1,020 Climbing New York Center
06:57PM 40.3583 -74.8347 223° Southwest 334 384 23,600 1,020 Climbing New York Center
06:58PM 40.3147 -74.9439 242° Southwest 340 391 24,700 840 Climbing New York Center
06:59PM 40.2758 -75.0447 243° Southwest 340 391 25,400 660 Climbing New York Center
07:00PM 40.2219 -75.1475 236° Southwest 340 391 26,100 660 Climbing New York Center
07:01PM 40.1639 -75.2497 233° Southwest 350 403 26,800 660 Climbing New York Center
07:02PM 40.1058 -75.3547 234° Southwest 360 414 27,400 540 Climbing New York Center
07:03PM 40.0453 -75.4592 233° Southwest 365 420 27,900 240 Climbing New York Center
07:04PM 39.9828 -75.5633 232° Southwest 371 427 28,000  Climbing New York Center
07:05PM 39.9222 -75.6700 234° Southwest 371 427 28,000  Level New York Center
07:06PM 39.8617 -75.7714 232° Southwest 371 427 28,000  Level New York Center
07:08PM 39.7256 -75.9747 229° Southwest 373 429 28,000  Level Washington Center
07:09PM 39.6689 -76.0742 234° Southwest 373 429 28,000  Level Washington Center
07:10PM 39.6039 -76.1733 230° Southwest 373 429 28,000  Level Washington Center
07:11PM 39.5389 -76.2722 230° Southwest 373 429 28,000  Level Washington Center
07:12PM 39.4756 -76.3711 230° Southwest 373 429 28,000  Level Washington Center
07:13PM 39.4083 -76.4700 229° Southwest 373 429 28,000  Level Washington Center
07:14PM 39.3450 -76.5683 230° Southwest 373 429 28,000  Level Washington Center
07:15PM 39.2817 -76.6667 230° Southwest 368 423 28,000  Level Washington Center
07:16PM 39.2203 -76.7650 231° Southwest 368 423 28,000  Level Washington Center
07:17PM 39.1567 -76.8658 231° Southwest 368 423 28,000  Level Washington Center
07:18PM 39.0931 -76.9636 230° Southwest 368 423 28,000  Level Washington Center
07:19PM 39.0253 -77.0558 227° Southwest 368 423 28,000  Level Washington Center
07:20PM 38.9492 -77.1425 222° Southwest 368 423 28,000  Level Washington Center
07:21PM 38.8711 -77.2261 220° Southwest 373 429 28,000  Level Washington Center
07:22PM 38.7906 -77.3147 221° Southwest 373 429 28,000  Level Washington Center
07:23PM 38.7228 -77.3906 221° Southwest 373 429 28,000  Level Washington Center
07:24PM 38.6422 -77.4789 221° Southwest 373 429 28,000  Level Washington Center
07:25PM 38.5636 -77.5619 220° Southwest 373 429 28,000  Level Washington Center
07:26PM 38.4892 -77.6553 224° Southwest 378 435 28,000  Level Washington Center
07:27PM 38.4167 -77.7514 226° Southwest 372 428 28,000  Level Washington Center
07:28PM 38.3397 -77.8525 226° Southwest 384 442 28,000  Level Washington Center
07:29PM 38.2625 -77.9558 226° Southwest 402 463 28,000  Level Washington Center
07:30PM 38.1833 -78.0589 226° Southwest 407 468 28,000  Level Washington Center
07:31PM 38.1039 -78.1644 226° Southwest 407 468 28,000  Level Washington Center
07:32PM 38.0100 -78.2642 220° Southwest 405 466 28,000  Level Washington Center
07:33PM 37.9203 -78.3583 220° Southwest 405 466 28,000  Level Washington Center
07:34PM 37.8325 -78.4525 220° Southwest 410 472 28,000  Level Washington Center
07:35PM 37.7533 -78.5336 219° Southwest 410 472 28,000  Level Washington Center
07:36PM 37.6592 -78.6375 221° Southwest 418 481 28,000  Level Washington Center
07:37PM 37.5800 -78.7156 218° Southwest 411 473 28,000  Level Washington Center
07:38PM 37.4856 -78.8111 219° Southwest 411 473 28,000  Level Washington Center
07:39PM 37.4103 -78.8917 220° Southwest 411 473 28,000  Level Washington Center
07:40PM 37.3136 -78.9919 220° Southwest 411 473 28,000  Level Washington Center
07:41PM 37.2381 -79.0825 224° Southwest 411 473 28,000  Level Washington Center
07:42PM 37.1572 -79.2064 231° Southwest 425 489 28,000  Level Washington Center
07:43PM 37.0775 -79.2911 220° Southwest 425 489 28,000  Level Washington Center
07:44PM 36.9742 -79.3903 217° Southwest 430 495 28,000  Level Washington Center
07:45PM 36.8881 -79.4717 217° Southwest 436 502 28,000  Level Washington Center
07:46PM 36.7847 -79.5703 217° Southwest 429 494 28,000  Level Washington Center
07:47PM 36.6986 -79.6514 217° Southwest 429 494 28,000 -780 Level Washington Center
07:48PM 36.5803 -79.7628 217° Southwest 440 506 26,400 -1,440 Descending Atlanta Center
07:49PM 36.4831 -79.8506 216° Southwest 440 506 24,900 -1,500 Descending Atlanta Center
07:50PM 36.3900 -79.9353 216° Southwest 439 505 23,400 -1,500 Descending Atlanta Center
07:51PM 36.3011 -80.0172 217° Southwest 412 474 22,000 -960 Descending Atlanta Center
07:52PM 36.2097 -80.0939 214° Southwest 402 463 21,500 -1,260 Descending Atlanta Center
07:53PM 36.1225 -80.1700 215° Southwest 396 456 19,500 -1,860 Descending Atlanta Center
07:54PM 36.0289 -80.2492 214° Southwest 382 440 17,800 -1,680 Descending Atlanta Center
07:55PM 35.9742 -80.3003 217° Southwest 369 425 16,700 -1,740 Descending Atlanta Center
07:55PM 35.9478 -80.3194 210° Southwest 377 434 16,100 -2,040 Descending Atlanta Center
07:56PM 35.8683 -80.3872 215° Southwest 363 418 14,100 -1,800 Descending Atlanta Center
07:57PM 35.8381 -80.4192 221° Southwest 334 384 13,600 -1,020 Descending Atlanta Center
07:57PM 35.7931 -80.4519 211° Southwest 344 396 13,100 -660 Descending Atlanta Center
07:58PM 35.7686 -80.4736 216° Southwest 312 359 13,000 -1,020 Descending Atlanta Center
07:58PM 35.7258 -80.5086 214° Southwest 319 367 12,100 -1,680 Descending Atlanta Center
07:59PM 35.7078 -80.5275 220° Southwest 289 333 11,500 -1,320 Descending Atlanta Center
07:59PM 35.6500 -80.5528 200° South 301 346 10,800 -1,320 Descending Atlanta Center
08:00PM 35.6317 -80.5717 220° Southwest 292 336 10,200 -2,100 Descending Atlanta Center
08:00PM 35.5825 -80.6017 206° Southwest 301 346 8,700 -2,040 Descending Atlanta Center
08:01PM 35.5642 -80.6178 216° Southwest 285 328 8,200 -1,740 Descending Atlanta Center
08:01PM 35.5192 -80.6478 208° Southwest 296 341 7,000 -1,800 Descending Atlanta Center
08:02PM 35.4886 -80.6744 215° Southwest 276 318 6,200 -1,440 Descending Atlanta Center
08:02PM 35.4578 -80.6911 204° Southwest 280 322 5,600 -1,380 Descending Atlanta Center
08:03PM 35.4311 -80.7100 210° Southwest 218 251 4,800 -1,440 Descending Atlanta Center
08:03PM 35.4064 -80.7211 200° South 237 273 4,200 -720 Descending Atlanta Center
08:04PM 35.3775 -80.7350 201° Southwest 184 212 4,000 -240 Descending Atlanta Center
08:04PM 35.3611 -80.7433 203° Southwest 196 226 4,000  Level Atlanta Center
08:05PM 35.3408 -80.7672 224° Southwest 163 188 4,000  Level Atlanta Center